createdAt,value
2017-07-29T00:00:25.893Z,2.90
2017-07-29T00:02:54.132Z,3.17
2017-07-29T00:05:23.130Z,3.43
2017-07-29T00:07:51.372Z,3.50
2017-07-29T00:10:19.603Z,3.43
2017-07-29T00:12:47.808Z,3.60
2017-07-29T00:15:16.052Z,3.13
2017-07-29T00:17:44.435Z,2.40
2017-07-29T00:20:12.651Z,3.20
2017-07-29T00:22:40.908Z,3.57
2017-07-29T00:25:09.154Z,2.80
2017-07-29T00:27:37.380Z,2.80
2017-07-29T00:30:05.665Z,3.23
2017-07-29T00:32:33.886Z,4.00
2017-07-29T00:35:02.162Z,3.90
2017-07-29T00:37:30.383Z,2.53
2017-07-29T00:39:58.737Z,2.80
2017-07-29T00:42:27.082Z,3.30
2017-07-29T00:44:55.276Z,2.80
2017-07-29T00:47:23.519Z,2.60
2017-07-29T00:49:51.757Z,3.37
2017-07-29T00:52:19.982Z,3.07
2017-07-29T00:54:48.225Z,3.33
2017-07-29T00:57:16.466Z,3.27
2017-07-29T00:59:44.967Z,2.87
2017-07-29T01:02:13.241Z,3.33
2017-07-29T01:04:41.716Z,3.20
2017-07-29T01:07:10.189Z,3.53
2017-07-29T01:09:38.577Z,3.90
2017-07-29T01:12:06.932Z,2.90
2017-07-29T01:14:35.929Z,3.73
2017-07-29T01:17:04.136Z,3.20
2017-07-29T01:19:32.798Z,3.20
2017-07-29T01:22:01.121Z,2.93
2017-07-29T01:24:29.346Z,3.50
2017-07-29T01:26:57.576Z,2.90
2017-07-29T01:29:25.912Z,3.27
2017-07-29T01:31:54.131Z,4.27
2017-07-29T01:34:22.352Z,3.10
2017-07-29T01:36:50.576Z,2.40
2017-07-29T01:39:18.820Z,3.00
2017-07-29T01:41:47.089Z,3.33
2017-07-29T01:44:16.192Z,2.80
2017-07-29T01:46:44.447Z,2.83
2017-07-29T01:49:12.673Z,3.20
2017-07-29T01:51:41.029Z,3.00
2017-07-29T01:54:09.301Z,3.00
2017-07-29T01:56:37.559Z,3.10
2017-07-29T01:59:06.525Z,3.40
2017-07-29T02:01:34.765Z,3.20
2017-07-29T02:04:03.019Z,2.53
2017-07-29T02:06:31.472Z,2.90
2017-07-29T02:08:59.720Z,3.17
2017-07-29T02:11:28.271Z,3.63
2017-07-29T02:13:56.625Z,3.27
2017-07-29T02:16:25.052Z,3.20
2017-07-29T02:18:53.284Z,3.30
2017-07-29T02:21:21.605Z,3.67
2017-07-29T02:23:50.155Z,3.10
2017-07-29T02:26:19.736Z,3.53
2017-07-29T02:28:47.940Z,2.90
2017-07-29T02:31:16.182Z,3.03
2017-07-29T02:33:44.830Z,3.63
2017-07-29T02:36:13.365Z,4.63
2017-07-29T02:38:41.601Z,3.33
2017-07-29T02:41:09.849Z,3.70
2017-07-29T02:43:38.080Z,3.30
2017-07-29T02:46:06.330Z,3.70
2017-07-29T02:48:34.592Z,3.00
2017-07-29T02:51:02.871Z,3.73
2017-07-29T02:53:31.082Z,2.67
2017-07-29T02:55:59.363Z,3.13
2017-07-29T02:58:27.592Z,3.73
2017-07-29T03:00:55.812Z,3.77
2017-07-29T03:03:24.089Z,3.37
2017-07-29T03:05:52.340Z,3.73
2017-07-29T03:08:20.579Z,3.37
2017-07-29T03:10:48.800Z,3.30
2017-07-29T03:13:17.033Z,3.33
2017-07-29T03:15:46.046Z,3.37
2017-07-29T03:18:14.301Z,4.07
2017-07-29T03:20:42.541Z,3.83
2017-07-29T03:23:10.987Z,3.60
2017-07-29T03:25:39.256Z,3.67
2017-07-29T03:28:08.635Z,4.40
2017-07-29T03:30:36.916Z,3.90
2017-07-29T03:33:05.327Z,3.50
2017-07-29T03:35:34.017Z,3.50
2017-07-29T03:38:02.277Z,4.40
2017-07-29T03:40:30.527Z,3.40
2017-07-29T03:42:58.836Z,3.60
2017-07-29T03:45:27.333Z,3.43
2017-07-29T03:47:55.615Z,3.70
2017-07-29T03:50:23.807Z,3.70
2017-07-29T03:52:52.137Z,4.03
2017-07-29T03:55:21.287Z,3.30
2017-07-29T03:57:49.565Z,3.07
2017-07-29T04:00:17.789Z,3.03
2017-07-29T04:02:46.779Z,3.83
2017-07-29T04:05:15.031Z,3.30
2017-07-29T04:07:43.217Z,3.13
2017-07-29T04:10:11.424Z,3.17
2017-07-29T04:12:39.666Z,3.23
2017-07-29T04:15:07.879Z,3.87
2017-07-29T04:17:36.113Z,3.87
2017-07-29T04:20:04.376Z,3.83
2017-07-29T04:22:32.638Z,3.20
2017-07-29T04:25:00.867Z,3.60
2017-07-29T04:27:29.081Z,3.97
2017-07-29T04:29:57.315Z,4.03
2017-07-29T04:32:25.633Z,3.17
2017-07-29T04:34:53.865Z,3.43
2017-07-29T04:37:22.092Z,2.80
2017-07-29T04:39:50.314Z,3.20
2017-07-29T04:42:18.746Z,3.03
2017-07-29T04:44:46.975Z,3.60
2017-07-29T04:47:15.261Z,3.30
2017-07-29T04:49:44.263Z,2.20
2017-07-29T04:52:12.505Z,3.60
2017-07-29T04:54:40.766Z,2.63
2017-07-29T04:57:08.992Z,3.00
2017-07-29T04:59:37.973Z,2.80
2017-07-29T05:02:06.459Z,3.43
2017-07-29T05:04:34.721Z,3.40
2017-07-29T05:07:03.198Z,3.50
2017-07-29T05:09:31.429Z,3.40
2017-07-29T05:11:59.662Z,3.10
2017-07-29T05:14:27.909Z,3.50
2017-07-29T05:16:56.160Z,3.07
2017-07-29T05:19:24.417Z,2.97
2017-07-29T05:21:52.705Z,3.57
2017-07-29T05:24:21.152Z,3.37
2017-07-29T05:26:49.349Z,3.53
2017-07-29T05:29:18.371Z,2.50
2017-07-29T05:31:46.613Z,3.50
2017-07-29T05:34:15.742Z,3.40
2017-07-29T05:36:43.954Z,3.20
2017-07-29T05:39:12.164Z,3.63
2017-07-29T05:41:41.156Z,3.03
2017-07-29T05:44:09.369Z,3.00
2017-07-29T05:46:37.604Z,3.10
2017-07-29T05:49:05.862Z,3.07
2017-07-29T05:51:34.084Z,3.40
2017-07-29T05:54:02.316Z,3.07
2017-07-29T05:56:30.544Z,2.60
2017-07-29T05:58:58.752Z,2.97
2017-07-29T06:01:26.984Z,2.67
2017-07-29T06:03:55.211Z,2.60
2017-07-29T06:06:23.900Z,2.53
2017-07-29T06:08:52.137Z,3.00
2017-07-29T06:11:20.377Z,2.00
2017-07-29T06:13:48.582Z,3.77
2017-07-29T06:16:16.798Z,3.20
2017-07-29T06:18:45.041Z,2.97
2017-07-29T06:21:13.596Z,2.50
2017-07-29T06:23:41.831Z,3.07
2017-07-29T06:26:10.049Z,3.20
2017-07-29T06:28:38.277Z,2.73
2017-07-29T06:31:06.500Z,2.73
2017-07-29T06:33:34.749Z,2.67
2017-07-29T06:36:02.968Z,2.10
2017-07-29T06:38:31.944Z,2.57
2017-07-29T06:41:00.155Z,2.67
2017-07-29T06:43:28.358Z,4.33
2017-07-29T06:45:56.615Z,2.30
2017-07-29T06:48:25.829Z,2.17
2017-07-29T06:50:54.083Z,2.10
2017-07-29T06:53:22.321Z,1.73
2017-07-29T06:55:51.356Z,2.00
2017-07-29T06:58:19.612Z,2.27
2017-07-29T07:00:47.830Z,1.73
2017-07-29T07:03:16.032Z,2.50
2017-07-29T07:05:44.301Z,1.50
2017-07-29T07:08:12.575Z,2.00
2017-07-29T07:10:40.791Z,1.87
2017-07-29T07:13:09.266Z,1.60
2017-07-29T07:15:37.489Z,1.90
2017-07-29T07:18:05.702Z,1.33
2017-07-29T07:20:33.924Z,1.53
2017-07-29T07:23:02.146Z,1.40
2017-07-29T07:25:30.409Z,1.93
2017-07-29T07:27:58.661Z,1.77
2017-07-29T07:30:27.109Z,1.43
2017-07-29T07:32:56.108Z,1.47
2017-07-29T07:35:24.347Z,1.50
2017-07-29T07:37:52.546Z,1.57
2017-07-29T07:40:21.058Z,1.77
2017-07-29T07:42:49.290Z,2.33
2017-07-29T07:45:17.529Z,2.00
2017-07-29T07:47:45.784Z,1.60
2017-07-29T07:50:14.002Z,1.50
2017-07-29T07:52:42.248Z,1.37
2017-07-29T07:55:10.460Z,1.90
2017-07-29T07:57:38.690Z,1.73
2017-07-29T08:00:06.949Z,1.87
2017-07-29T08:02:35.195Z,1.60
2017-07-29T08:05:03.460Z,1.63
2017-07-29T08:07:31.705Z,2.20
2017-07-29T08:09:59.957Z,2.23
2017-07-29T08:12:28.444Z,1.63
2017-07-29T08:14:57.428Z,1.10
2017-07-29T08:17:25.641Z,1.37
2017-07-29T08:19:53.878Z,2.03
2017-07-29T08:22:22.092Z,1.50
2017-07-29T08:24:50.489Z,1.40
2017-07-29T08:27:18.980Z,1.70
2017-07-29T08:29:47.217Z,1.63
2017-07-29T08:32:16.196Z,2.20
2017-07-29T08:34:44.598Z,1.70
2017-07-29T08:37:12.816Z,1.70
2017-07-29T08:39:41.028Z,1.67
2017-07-29T08:42:09.466Z,1.53
2017-07-29T08:44:38.306Z,1.53
2017-07-29T08:47:07.380Z,1.60
2017-07-29T08:49:35.597Z,2.00
2017-07-29T08:52:03.840Z,1.50
2017-07-29T08:54:32.053Z,2.50
2017-07-29T08:57:00.292Z,1.70
2017-07-29T08:59:28.528Z,2.30
2017-07-29T09:01:57.612Z,2.43
2017-07-29T09:04:25.817Z,1.47
2017-07-29T09:06:54.197Z,1.50
2017-07-29T09:09:22.446Z,1.37
2017-07-29T09:11:50.668Z,1.53
2017-07-29T09:14:18.901Z,1.60
2017-07-29T09:16:47.249Z,1.40
2017-07-29T09:19:15.501Z,2.97
2017-07-29T09:21:43.712Z,2.13
2017-07-29T09:24:12.762Z,1.90
2017-07-29T09:26:40.970Z,2.00
2017-07-29T09:29:09.289Z,1.53
2017-07-29T09:52:48.889Z,2.40
2017-07-29T09:57:48.205Z,1.87
2017-07-29T10:00:17.481Z,1.93
2017-07-29T10:02:47.524Z,1.67
2017-07-29T10:05:16.790Z,1.03
2017-07-29T10:07:46.062Z,1.30
2017-07-29T10:10:15.320Z,1.20
2017-07-29T10:12:45.390Z,1.30
2017-07-29T10:15:14.669Z,1.50
2017-07-29T10:17:44.025Z,1.00
2017-07-29T10:20:14.069Z,1.10
2017-07-29T10:22:43.335Z,1.30
2017-07-29T10:25:12.662Z,1.90
2017-07-29T10:27:42.681Z,1.60
2017-07-29T10:30:12.775Z,1.30
2017-07-29T10:32:42.144Z,0.93
2017-07-29T10:35:11.403Z,1.47
2017-07-29T10:37:41.458Z,1.20
2017-07-29T10:40:10.718Z,1.20
2017-07-29T10:42:40.609Z,1.40
2017-07-29T10:45:09.884Z,1.30
2017-07-29T10:47:39.145Z,1.30
2017-07-29T10:50:09.202Z,1.53
2017-07-29T10:52:38.798Z,1.23
2017-07-29T10:55:08.060Z,1.33
2017-07-29T10:57:38.110Z,1.50
2017-07-29T11:00:07.361Z,1.07
2017-07-29T11:02:36.649Z,1.57
2017-07-29T11:05:05.910Z,1.40
2017-07-29T11:07:35.177Z,1.43
2017-07-29T11:10:04.612Z,0.90
2017-07-29T11:12:33.858Z,1.40
2017-07-29T11:15:03.113Z,1.40
2017-07-29T11:17:32.365Z,1.40
2017-07-29T11:20:02.694Z,1.37
2017-07-29T11:22:32.012Z,1.13
2017-07-29T11:25:01.342Z,1.43
2017-07-29T11:27:30.588Z,1.10
2017-07-29T11:29:59.858Z,1.23
2017-07-29T11:32:29.348Z,1.43
2017-07-29T11:34:58.604Z,1.30
2017-07-29T11:37:27.891Z,2.43
2017-07-29T11:39:57.146Z,1.73
2017-07-29T11:42:27.179Z,1.10
2017-07-29T11:44:56.469Z,1.10
2017-07-29T11:47:25.742Z,1.30
2017-07-29T11:49:54.975Z,0.90
2017-07-29T11:52:24.349Z,1.00
2017-07-29T11:54:53.629Z,1.00
2017-07-29T11:57:22.883Z,1.30
2017-07-29T11:59:52.161Z,0.90
2017-07-29T12:02:22.206Z,1.10
2017-07-29T12:04:51.500Z,0.83
2017-07-29T12:07:20.761Z,1.10
2017-07-29T12:09:50.104Z,1.20
2017-07-29T12:12:19.357Z,1.00
2017-07-29T12:14:48.676Z,1.00
2017-07-29T12:17:17.957Z,1.17
2017-07-29T12:19:47.216Z,1.03
2017-07-29T12:22:16.478Z,0.90
2017-07-29T12:24:46.530Z,0.90
2017-07-29T12:27:15.789Z,1.20
2017-07-29T12:29:45.039Z,1.00
2017-07-29T12:32:14.331Z,0.90
2017-07-29T12:34:43.741Z,1.30
2017-07-29T12:37:13.103Z,1.20
2017-07-29T12:39:42.365Z,1.30
2017-07-29T12:42:11.630Z,1.10
2017-07-29T12:44:40.885Z,0.90
2017-07-29T12:47:10.157Z,1.10
2017-07-29T12:49:39.480Z,1.10
2017-07-29T12:52:08.752Z,1.30
2017-07-29T12:54:38.022Z,0.90
2017-07-29T12:57:07.295Z,1.00
2017-07-29T12:59:36.540Z,1.30
2017-07-29T13:02:05.813Z,1.33
2017-07-29T13:04:35.110Z,1.03
2017-07-29T13:07:04.400Z,1.03
2017-07-29T13:09:33.662Z,1.00
2017-07-29T13:12:02.988Z,1.20
2017-07-29T13:14:32.245Z,1.30
2017-07-29T13:17:02.343Z,1.67
2017-07-29T13:19:31.591Z,1.37
2017-07-29T13:22:00.866Z,0.90
2017-07-29T13:24:30.116Z,1.40
2017-07-29T13:26:59.650Z,1.20
2017-07-29T13:29:30.023Z,0.90
2017-07-29T13:31:59.765Z,1.20
2017-07-29T13:34:29.787Z,1.27
2017-07-29T13:36:59.035Z,1.13
2017-07-29T13:39:28.330Z,1.33
2017-07-29T13:41:57.590Z,1.23
2017-07-29T13:44:26.853Z,1.10
2017-07-29T13:46:56.943Z,1.20
2017-07-29T13:49:26.199Z,1.77
2017-07-29T13:51:56.121Z,1.67
2017-07-29T13:54:25.435Z,1.50
2017-07-29T13:56:54.704Z,1.40
2017-07-29T13:59:23.981Z,1.57
2017-07-29T14:01:53.579Z,1.30
2017-07-29T14:04:22.916Z,1.23
2017-07-29T14:06:52.194Z,1.20
2017-07-29T14:09:21.432Z,1.10
2017-07-29T14:11:50.739Z,1.47
2017-07-29T14:14:20.035Z,1.37
2017-07-29T14:16:49.326Z,2.93
2017-07-29T14:19:18.728Z,1.10
2017-07-29T14:21:47.994Z,1.10
2017-07-29T14:24:17.293Z,1.33
2017-07-29T14:26:46.700Z,1.40
2017-07-29T14:29:15.977Z,1.03
2017-07-29T14:31:45.246Z,1.20
2017-07-29T14:34:14.530Z,1.40
2017-07-29T14:36:44.575Z,1.53
2017-07-29T14:39:13.883Z,1.13
2017-07-29T14:41:43.990Z,1.23
2017-07-29T14:44:13.234Z,1.10
2017-07-29T14:46:42.508Z,0.90
2017-07-29T14:49:11.763Z,0.87
2017-07-29T14:51:42.057Z,1.23
2017-07-29T14:54:11.411Z,1.10
2017-07-29T14:56:40.666Z,1.40
2017-07-29T14:59:09.924Z,1.30
2017-07-29T15:01:39.461Z,1.13
2017-07-29T15:04:08.797Z,1.10
2017-07-29T15:06:38.829Z,1.30
2017-07-29T15:09:08.116Z,2.73
2017-07-29T15:11:37.411Z,1.10
2017-07-29T15:14:06.703Z,1.30
2017-07-29T15:16:35.979Z,1.00
2017-07-29T15:19:05.254Z,1.17
2017-07-29T15:21:34.569Z,1.43
2017-07-29T15:24:03.821Z,1.10
2017-07-29T15:26:33.845Z,1.03
2017-07-29T15:29:03.113Z,1.00
2017-07-29T15:31:32.567Z,1.10
2017-07-29T15:34:01.787Z,1.00
2017-07-29T15:36:31.172Z,0.93
2017-07-29T15:39:00.411Z,0.97
2017-07-29T15:41:29.690Z,1.27
2017-07-29T15:43:58.982Z,1.80
2017-07-29T15:46:28.233Z,1.53
2017-07-29T15:48:57.557Z,1.30
2017-07-29T15:51:27.359Z,1.50
2017-07-29T15:53:56.851Z,1.23
2017-07-29T15:56:26.153Z,1.57
2017-07-29T15:58:55.422Z,1.00
2017-07-29T16:01:24.671Z,1.10
2017-07-29T16:03:53.953Z,1.00
2017-07-29T16:06:23.254Z,1.27
2017-07-29T16:08:52.542Z,1.47
2017-07-29T16:11:21.789Z,1.20
2017-07-29T16:13:51.854Z,1.10
2017-07-29T16:16:21.111Z,1.97
2017-07-29T16:18:50.399Z,1.17
2017-07-29T16:21:19.688Z,1.50
2017-07-29T16:23:48.935Z,1.17
2017-07-29T16:26:18.225Z,1.33
2017-07-29T16:28:47.488Z,1.47
2017-07-29T16:31:17.090Z,1.43
2017-07-29T16:33:46.366Z,1.00
2017-07-29T16:36:15.639Z,1.70
2017-07-29T16:38:44.956Z,1.30
2017-07-29T16:41:14.446Z,1.43
2017-07-29T16:43:43.833Z,1.40
2017-07-29T16:46:13.880Z,1.30
2017-07-29T16:48:43.166Z,1.03
2017-07-29T16:51:12.477Z,1.40
2017-07-29T16:53:41.726Z,1.20
2017-07-29T16:56:11.057Z,1.30
2017-07-29T16:58:40.458Z,1.17
2017-07-29T17:01:10.697Z,1.30
2017-07-29T17:03:39.971Z,1.40
2017-07-29T17:06:09.312Z,1.10
2017-07-29T17:08:38.657Z,1.60
2017-07-29T17:11:07.920Z,1.33
2017-07-29T17:13:37.188Z,1.43
2017-07-29T17:16:06.520Z,1.50
2017-07-29T17:18:35.795Z,1.27
2017-07-29T17:21:05.038Z,1.37
2017-07-29T17:23:34.556Z,2.47
2017-07-29T17:26:03.825Z,1.77
2017-07-29T17:28:33.089Z,2.03
2017-07-29T17:31:02.470Z,2.70
2017-07-29T17:33:31.920Z,2.40
2017-07-29T17:36:02.009Z,1.80
2017-07-29T17:38:31.622Z,1.23
2017-07-29T17:41:00.913Z,1.73
2017-07-29T17:43:30.191Z,1.67
2017-07-29T17:45:59.485Z,1.60
2017-07-29T17:48:28.743Z,2.00
2017-07-29T17:50:58.990Z,2.80
2017-07-29T17:53:28.436Z,2.10
2017-07-29T17:55:57.710Z,1.43
2017-07-29T17:58:26.989Z,1.63
2017-07-29T18:00:56.324Z,1.70
2017-07-29T18:03:25.673Z,1.77
2017-07-29T18:05:54.997Z,1.73
2017-07-29T18:08:23.556Z,1.77
2017-07-29T18:10:52.610Z,2.20
2017-07-29T18:13:21.887Z,1.70
2017-07-29T18:15:51.137Z,1.93
2017-07-29T18:18:20.446Z,1.70
2017-07-29T18:20:49.725Z,3.40
2017-07-29T18:23:18.973Z,2.13
2017-07-29T18:25:49.031Z,2.37
2017-07-29T18:28:18.278Z,1.80
2017-07-29T18:30:47.531Z,3.07
2017-07-29T18:33:16.838Z,1.80
2017-07-29T18:35:46.105Z,2.23
2017-07-29T18:38:15.438Z,2.23
2017-07-29T18:40:44.675Z,2.10
2017-07-29T18:43:14.739Z,1.97
2017-07-29T18:45:43.977Z,2.60
2017-07-29T18:48:13.270Z,2.07
2017-07-29T18:50:42.704Z,2.50
2017-07-29T18:53:11.999Z,2.00
2017-07-29T18:55:41.307Z,2.50
2017-07-29T18:58:10.668Z,3.00
2017-07-29T19:00:39.932Z,2.20
2017-07-29T19:03:09.532Z,3.10
2017-07-29T19:05:39.113Z,1.93
2017-07-29T19:08:08.746Z,2.83
2017-07-29T19:10:38.274Z,2.70
2017-07-29T19:13:07.623Z,2.20
2017-07-29T19:15:37.104Z,2.50
2017-07-29T19:18:07.325Z,2.10
2017-07-29T19:20:36.795Z,2.07
2017-07-29T19:23:07.289Z,2.67
2017-07-29T19:25:37.498Z,1.90
2017-07-29T19:28:07.454Z,2.10
2017-07-29T19:30:37.527Z,2.30
2017-07-29T19:33:06.840Z,2.17
2017-07-29T19:35:36.102Z,2.20
2017-07-29T19:38:05.349Z,2.50
2017-07-29T19:40:34.658Z,2.37
2017-07-29T19:43:04.050Z,2.13
2017-07-29T19:45:33.435Z,2.67
2017-07-29T19:48:03.206Z,3.07
2017-07-29T19:50:32.500Z,2.90
2017-07-29T19:53:01.930Z,3.13
2017-07-29T19:55:31.979Z,2.10
2017-07-29T19:58:01.318Z,2.90
2017-07-29T20:00:30.589Z,2.33
2017-07-29T20:03:00.052Z,3.10
2017-07-29T20:05:29.511Z,2.50
2017-07-29T20:07:59.743Z,3.03
2017-07-29T20:10:29.347Z,3.03
2017-07-29T20:12:58.938Z,3.63
2017-07-29T20:15:28.320Z,3.00
2017-07-29T20:17:57.629Z,2.80
2017-07-29T20:20:28.462Z,3.03
2017-07-29T20:22:58.101Z,2.43
2017-07-29T20:25:27.503Z,2.67
2017-07-29T20:27:57.238Z,2.97
2017-07-29T20:30:26.574Z,2.50
2017-07-29T20:33:01.191Z,2.60
2017-07-29T20:35:31.257Z,2.63
2017-07-29T20:38:00.568Z,3.10
2017-07-29T20:40:29.882Z,2.90
2017-07-29T20:42:59.154Z,2.90
2017-07-29T20:45:28.408Z,2.93
2017-07-29T20:47:58.037Z,2.93
2017-07-29T20:50:28.072Z,3.10
2017-07-29T20:52:57.373Z,2.80
2017-07-29T20:55:26.666Z,3.50
2017-07-29T20:57:55.953Z,3.40
2017-07-29T21:00:25.246Z,2.83
2017-07-29T21:02:58.080Z,3.20
2017-07-29T21:05:27.357Z,2.73
2017-07-29T21:07:57.139Z,2.70
2017-07-29T21:10:30.869Z,4.13
2017-07-29T21:13:00.129Z,2.80
2017-07-29T21:15:29.421Z,2.67
2017-07-29T21:17:58.725Z,2.70
2017-07-29T21:20:28.031Z,3.70
2017-07-29T21:22:57.351Z,3.20
2017-07-29T21:25:26.668Z,3.47
2017-07-29T21:27:55.984Z,2.73
2017-07-29T21:30:25.265Z,2.80
2017-07-29T21:32:55.282Z,2.70
2017-07-29T21:35:24.722Z,3.00
2017-07-29T21:37:55.527Z,4.47
2017-07-29T21:40:24.846Z,3.10
2017-07-29T21:42:54.129Z,3.00
2017-07-29T21:45:23.400Z,2.80
2017-07-29T21:47:52.656Z,2.80
2017-07-29T21:50:22.118Z,3.00
2017-07-29T21:52:52.357Z,3.30
2017-07-29T21:55:21.628Z,3.00
2017-07-29T21:57:50.991Z,2.90
2017-07-29T22:00:20.266Z,3.00
2017-07-29T22:02:49.886Z,3.20
2017-07-29T22:05:19.185Z,2.90
2017-07-29T22:07:48.542Z,3.60
2017-07-29T22:10:17.795Z,2.80
2017-07-29T22:12:47.104Z,3.63
2017-07-29T22:15:16.406Z,3.10
2017-07-29T22:17:46.489Z,3.10
2017-07-29T22:20:15.799Z,3.80
2017-07-29T22:22:49.447Z,3.43
2017-07-29T22:25:19.121Z,3.20
2017-07-29T22:27:48.381Z,3.27
2017-07-29T22:30:17.669Z,3.20
2017-07-29T22:32:47.025Z,3.17
2017-07-29T22:35:17.227Z,2.97
2017-07-29T22:37:47.690Z,3.70
2017-07-29T22:40:18.071Z,2.83
2017-07-29T22:42:47.499Z,3.73
2017-07-29T22:45:16.981Z,3.60
2017-07-29T22:47:46.281Z,3.23
2017-07-29T22:50:15.605Z,4.07
2017-07-29T22:52:45.141Z,3.57
2017-07-29T22:55:18.410Z,2.70
2017-07-29T22:57:47.743Z,2.90
2017-07-29T23:00:17.095Z,3.33
2017-07-29T23:02:46.463Z,2.80
2017-07-29T23:05:15.751Z,3.80
2017-07-29T23:07:45.224Z,3.87
2017-07-29T23:10:14.539Z,3.33
2017-07-29T23:12:43.819Z,7.30
2017-07-29T23:15:13.145Z,3.33
2017-07-29T23:17:42.704Z,3.50
2017-07-29T23:20:12.850Z,3.60
2017-07-29T23:22:42.172Z,2.87
2017-07-29T23:25:11.443Z,3.93
2017-07-29T23:27:40.777Z,3.50
2017-07-29T23:30:10.030Z,3.70
2017-07-29T23:32:39.318Z,3.50
2017-07-29T23:35:08.591Z,3.47
2017-07-29T23:37:38.033Z,3.47
2017-07-29T23:40:07.294Z,4.07
2017-07-29T23:42:36.548Z,3.80
2017-07-29T23:45:06.774Z,4.67
2017-07-29T23:47:36.091Z,3.47
2017-07-29T23:50:05.363Z,4.43
2017-07-29T23:52:34.629Z,3.67
2017-07-29T23:55:03.936Z,3.70
2017-07-29T23:57:33.201Z,3.57
